Terminal Aerodrome Forecast
Issued by NWS Paducah, KY

Home | Current Version | Previous Version | Text Only | Print | Product List | Glossary On
Versions: 1 2 3 4 5 6 7 8 9 10 11 12 13 14 15 16 17 18 19
000
FTUS43 KPAH 301202 AAA
TAFPAH
TAF AMD
KPAH 301202Z 3012/3112 17008KT P6SM VCSH SCT060 BKN250
     FM301500 20013G21KT P6SM VCSH SCT025 BKN045
      TEMPO 3018/3022 TSRA BKN025CB
     FM302200 25012KT P6SM BKN025 OVC040
     FM310700 30007KT P6SM BKN008 OVC012=

USA.gov is the U.S. government's official web portal to all federal, state and local government web resources and services.